createdAt,value
2023-03-30T00:00:18.825Z,2.38
2023-03-30T00:04:43.341Z,2.34
2023-03-30T00:08:45.624Z,2.33
2023-03-30T00:12:50.872Z,2.26
2023-03-30T00:16:53.525Z,2.09
2023-03-30T00:20:56.829Z,2.20
2023-03-30T00:24:59.096Z,2.20
2023-03-30T00:29:01.437Z,2.07
2023-03-30T00:33:04.361Z,1.95
2023-03-30T00:37:06.687Z,1.98
2023-03-30T00:41:09.437Z,2.05
2023-03-30T00:45:24.258Z,2.05
2023-03-30T00:49:26.638Z,2.19
2023-03-30T00:53:33.690Z,2.17
2023-03-30T00:57:39.038Z,2.22
2023-03-30T01:01:41.967Z,2.38
2023-03-30T01:05:48.939Z,2.47
2023-03-30T01:09:53.000Z,2.47
2023-03-30T01:14:00.474Z,2.48
2023-03-30T01:18:19.965Z,2.47
2023-03-30T01:22:47.191Z,2.50
2023-03-30T01:27:09.944Z,2.69
2023-03-30T01:31:32.102Z,2.76
2023-03-30T01:35:46.769Z,2.83
2023-03-30T01:40:14.999Z,2.91
2023-03-30T01:44:29.256Z,2.96
2023-03-30T01:48:53.152Z,2.98
2023-03-30T01:53:23.311Z,2.99
2023-03-30T01:57:34.022Z,3.02
2023-03-30T02:01:39.593Z,3.08
2023-03-30T02:05:44.759Z,3.11
2023-03-30T02:09:49.268Z,3.16
2023-03-30T02:13:53.470Z,3.23
2023-03-30T02:17:55.742Z,3.23
2023-03-30T02:21:59.116Z,3.29
2023-03-30T02:26:02.101Z,3.21
2023-03-30T02:30:09.033Z,3.22
2023-03-30T02:34:26.235Z,3.24
2023-03-30T02:38:40.895Z,3.22
2023-03-30T02:43:00.139Z,3.18
2023-03-30T02:47:23.785Z,3.17
2023-03-30T02:51:57.668Z,3.15
2023-03-30T02:56:23.553Z,3.17
2023-03-30T03:00:42.161Z,3.27
2023-03-30T03:04:52.987Z,3.36
2023-03-30T03:09:15.433Z,3.34
2023-03-30T03:13:20.777Z,3.35
2023-03-30T03:17:23.905Z,3.46
2023-03-30T03:21:26.366Z,3.51
2023-03-30T03:25:28.865Z,3.53
2023-03-30T03:29:37.852Z,3.57
2023-03-30T03:33:40.523Z,3.62
2023-03-30T03:37:49.765Z,3.40
2023-03-30T03:41:52.054Z,3.54
2023-03-30T03:45:54.318Z,3.49
2023-03-30T03:49:56.514Z,3.48
2023-03-30T03:53:59.052Z,3.49
2023-03-30T03:58:05.598Z,3.51
2023-03-30T04:02:07.805Z,3.46
2023-03-30T04:06:10.228Z,3.53
2023-03-30T04:10:13.789Z,3.54
2023-03-30T04:14:26.051Z,3.48
2023-03-30T04:18:42.008Z,3.41
2023-03-30T04:23:03.205Z,3.45
2023-03-30T04:27:16.977Z,3.49
2023-03-30T04:31:38.163Z,3.58
2023-03-30T04:36:17.588Z,3.60
2023-03-30T04:40:53.122Z,3.66
2023-03-30T04:45:12.792Z,3.97
2023-03-30T04:49:58.539Z,4.04
2023-03-30T04:54:22.825Z,4.10
2023-03-30T04:59:00.062Z,4.17
2023-03-30T05:03:40.324Z,4.22
2023-03-30T05:08:08.795Z,4.37
2023-03-30T05:12:36.901Z,4.48
2023-03-30T05:17:01.801Z,4.52
2023-03-30T05:21:12.715Z,4.80
2023-03-30T05:25:33.387Z,4.66
2023-03-30T05:29:42.103Z,4.93
2023-03-30T05:34:07.681Z,4.81
2023-03-30T05:38:23.302Z,4.92
2023-03-30T05:42:42.829Z,4.93
2023-03-30T05:47:11.100Z,4.89
2023-03-30T05:51:36.811Z,5.00
2023-03-30T05:55:57.360Z,5.07
2023-03-30T06:00:11.005Z,5.13
2023-03-30T06:04:27.219Z,5.24
2023-03-30T06:08:29.786Z,5.42
2023-03-30T06:12:35.932Z,5.67
2023-03-30T06:16:41.290Z,5.66
2023-03-30T06:20:48.782Z,5.72
2023-03-30T06:24:51.632Z,5.60
2023-03-30T06:28:56.177Z,5.65
2023-03-30T06:32:58.467Z,5.66
2023-03-30T06:37:13.980Z,5.71
2023-03-30T06:41:16.416Z,5.88
2023-03-30T06:45:22.105Z,6.17
2023-03-30T06:49:24.117Z,6.55
2023-03-30T06:53:58.690Z,6.47
2023-03-30T06:58:01.257Z,6.52
2023-03-30T07:02:04.214Z,6.63
2023-03-30T07:06:29.805Z,6.49
2023-03-30T07:10:32.947Z,6.69
2023-03-30T07:14:37.630Z,6.68
2023-03-30T07:18:39.723Z,6.79
2023-03-30T07:22:42.466Z,7.09
2023-03-30T07:26:44.723Z,7.36
2023-03-30T07:30:47.401Z,7.36
2023-03-30T07:34:50.576Z,7.24
2023-03-30T07:38:52.893Z,7.00
2023-03-30T07:42:55.211Z,6.89
2023-03-30T07:46:58.381Z,7.04
2023-03-30T07:51:03.929Z,7.26
2023-03-30T07:55:09.072Z,7.14
2023-03-30T07:59:27.136Z,7.37
2023-03-30T08:03:34.760Z,7.55
2023-03-30T08:07:37.283Z,7.91
2023-03-30T08:11:48.675Z,7.93
2023-03-30T08:15:52.589Z,8.24
2023-03-30T08:19:56.248Z,8.11
2023-03-30T08:23:59.163Z,8.23
2023-03-30T08:28:02.178Z,8.65
2023-03-30T08:32:04.313Z,8.78
2023-03-30T08:36:06.728Z,8.59
2023-03-30T08:40:12.822Z,8.75
2023-03-30T08:44:33.021Z,8.88
2023-03-30T08:48:37.849Z,8.39
2023-03-30T08:52:42.039Z,8.42
2023-03-30T08:57:03.342Z,8.57
2023-03-30T09:01:16.970Z,8.51
2023-03-30T09:05:25.641Z,8.72
2023-03-30T09:09:38.973Z,8.90
2023-03-30T09:13:45.430Z,8.92
2023-03-30T09:17:52.125Z,8.97
2023-03-30T09:21:55.883Z,9.24
2023-03-30T09:26:11.433Z,8.97
2023-03-30T09:30:19.972Z,8.84
2023-03-30T09:34:28.283Z,8.69
2023-03-30T09:38:32.308Z,8.65
2023-03-30T09:42:55.258Z,8.95
2023-03-30T09:46:59.555Z,9.22
2023-03-30T09:51:02.061Z,8.97
2023-03-30T09:55:25.232Z,9.23
2023-03-30T09:59:35.913Z,9.23
2023-03-30T10:03:40.049Z,9.42
2023-03-30T10:07:43.360Z,9.60
2023-03-30T10:11:49.581Z,10.12
2023-03-30T10:15:54.056Z,10.85
2023-03-30T10:20:39.301Z,11.24
2023-03-30T10:24:49.280Z,11.32
2023-03-30T10:28:53.650Z,11.35
2023-03-30T10:33:01.513Z,11.16
2023-03-30T10:37:11.989Z,11.09
2023-03-30T10:41:20.571Z,10.90
2023-03-30T10:45:34.874Z,10.98
2023-03-30T10:49:47.454Z,11.37
2023-03-30T10:54:13.079Z,11.50
2023-03-30T10:58:53.825Z,11.64
2023-03-30T11:03:16.655Z,11.72
2023-03-30T11:07:31.996Z,11.93
2023-03-30T11:11:39.108Z,12.10
2023-03-30T11:15:49.043Z,12.62
2023-03-30T11:20:40.382Z,13.02
2023-03-30T11:24:46.095Z,12.60
2023-03-30T11:28:58.571Z,12.93
2023-03-30T11:33:46.661Z,12.90
2023-03-30T11:38:13.289Z,12.57
2023-03-30T11:42:23.116Z,12.72
2023-03-30T11:47:00.777Z,12.81
2023-03-30T11:51:13.957Z,12.89
2023-03-30T11:55:41.123Z,13.05
2023-03-30T11:59:49.957Z,13.36
2023-03-30T12:03:59.272Z,13.29
2023-03-30T12:08:38.986Z,13.59
2023-03-30T12:12:42.691Z,13.76
2023-03-30T12:16:52.067Z,14.21
2023-03-30T12:21:24.741Z,14.70
2023-03-30T12:25:38.342Z,15.02
2023-03-30T12:34:07.074Z,14.54
2023-03-30T12:38:09.192Z,14.33
2023-03-30T12:42:26.934Z,14.16
2023-03-30T12:46:42.132Z,14.24
2023-03-30T12:51:01.574Z,14.08
2023-03-30T12:55:17.886Z,13.96
2023-03-30T12:59:38.313Z,13.90
2023-03-30T13:03:50.180Z,13.70
2023-03-30T13:07:55.169Z,13.40
2023-03-30T13:11:59.925Z,13.32
2023-03-30T13:16:02.162Z,13.30
2023-03-30T13:20:29.133Z,13.16
2023-03-30T13:24:38.627Z,12.97
2023-03-30T13:28:56.029Z,12.89
2023-03-30T13:33:12.261Z,12.59
2023-03-30T13:37:52.322Z,12.69
2023-03-30T13:42:17.048Z,12.66
2023-03-30T13:46:34.432Z,12.87
2023-03-30T13:50:36.884Z,12.89
2023-03-30T13:54:41.019Z,12.84
2023-03-30T13:58:51.610Z,12.91
2023-03-30T14:02:53.790Z,13.02
2023-03-30T14:06:58.300Z,13.18
2023-03-30T14:11:02.722Z,13.42
2023-03-30T14:15:21.075Z,13.60
2023-03-30T14:19:27.060Z,13.58
2023-03-30T14:23:39.019Z,13.47
2023-03-30T14:27:40.814Z,13.39
2023-03-30T14:31:51.050Z,13.50
2023-03-30T14:36:00.727Z,13.46
2023-03-30T14:40:06.461Z,13.50
2023-03-30T14:44:11.823Z,13.43
2023-03-30T14:48:22.637Z,13.15
2023-03-30T14:52:40.770Z,12.90
2023-03-30T14:56:52.801Z,12.80
2023-03-30T15:01:00.343Z,12.69
2023-03-30T15:05:03.768Z,12.70
2023-03-30T15:09:14.755Z,12.63
2023-03-30T15:13:53.653Z,12.49
2023-03-30T15:17:56.422Z,12.33
2023-03-30T15:22:04.965Z,12.06
2023-03-30T15:26:08.596Z,11.90
2023-03-30T15:30:25.837Z,11.55
2023-03-30T15:34:27.991Z,11.34
2023-03-30T15:38:34.114Z,11.29
2023-03-30T15:42:36.259Z,11.21
2023-03-30T15:46:40.375Z,11.28
2023-03-30T15:50:46.714Z,11.19
2023-03-30T15:54:55.267Z,11.25
2023-03-30T15:58:58.233Z,11.27
2023-03-30T16:03:01.634Z,11.23
2023-03-30T16:07:14.365Z,11.11
2023-03-30T16:11:18.586Z,11.07
2023-03-30T16:15:23.688Z,11.04
2023-03-30T16:19:26.053Z,11.17
2023-03-30T16:23:28.002Z,11.00
2023-03-30T16:27:30.100Z,11.03
2023-03-30T16:31:33.516Z,10.99
2023-03-30T16:35:35.712Z,10.96
2023-03-30T16:39:37.775Z,10.92
2023-03-30T16:43:39.804Z,10.83
2023-03-30T16:47:41.860Z,10.80
2023-03-30T16:51:44.721Z,10.73
2023-03-30T16:55:46.835Z,10.86
2023-03-30T16:59:48.923Z,10.75
2023-03-30T17:03:51.142Z,10.77
2023-03-30T17:07:54.801Z,10.69
2023-03-30T17:11:56.965Z,10.65
2023-03-30T17:16:01.216Z,10.56
2023-03-30T17:20:54.244Z,10.40
2023-03-30T17:24:56.593Z,10.43
2023-03-30T17:28:58.663Z,10.43
2023-03-30T17:33:00.880Z,10.44
2023-03-30T17:37:03.161Z,10.45
2023-03-30T17:41:07.157Z,10.28
2023-03-30T17:45:10.032Z,10.29
2023-03-30T17:49:17.343Z,10.20
2023-03-30T17:53:20.727Z,10.18
2023-03-30T17:57:23.263Z,10.16
2023-03-30T18:01:25.600Z,10.24
2023-03-30T18:05:29.756Z,10.23
2023-03-30T18:09:32.202Z,10.27
2023-03-30T18:13:34.283Z,10.51
2023-03-30T18:17:36.356Z,10.32
2023-03-30T18:21:38.456Z,10.33
2023-03-30T18:25:40.762Z,10.36
2023-03-30T18:29:43.220Z,10.10
2023-03-30T18:33:45.677Z,9.87
2023-03-30T18:37:49.129Z,9.70
2023-03-30T18:41:51.797Z,9.55
2023-03-30T18:46:02.472Z,9.38
2023-03-30T18:50:11.943Z,9.51
2023-03-30T18:54:14.156Z,9.46
2023-03-30T18:58:24.388Z,9.26
2023-03-30T19:02:26.540Z,9.22
2023-03-30T19:06:28.990Z,9.25
2023-03-30T19:10:36.061Z,9.13
2023-03-30T19:14:38.075Z,8.89
2023-03-30T19:18:40.416Z,8.93
2023-03-30T19:22:42.743Z,9.11
2023-03-30T19:26:44.862Z,8.98
2023-03-30T19:30:47.406Z,9.15
2023-03-30T19:34:50.257Z,9.05
2023-03-30T19:38:52.295Z,9.07
2023-03-30T19:42:54.437Z,9.04
2023-03-30T19:46:56.421Z,8.98
2023-03-30T19:50:58.496Z,8.96
2023-03-30T19:55:00.548Z,9.21
2023-03-30T19:59:02.647Z,9.01
2023-03-30T20:03:04.971Z,8.93
2023-03-30T20:07:07.208Z,8.97
2023-03-30T20:11:10.570Z,8.86
2023-03-30T20:15:13.210Z,8.86
2023-03-30T20:19:28.401Z,9.06
2023-03-30T20:23:31.615Z,9.01
2023-03-30T20:27:33.942Z,8.92
2023-03-30T20:31:36.388Z,9.00
2023-03-30T20:35:38.557Z,8.97
2023-03-30T20:39:41.703Z,8.96
2023-03-30T20:43:56.204Z,8.75
2023-03-30T20:48:06.042Z,8.63
2023-03-30T20:52:08.378Z,8.55
2023-03-30T20:56:10.977Z,8.67
2023-03-30T21:00:13.673Z,8.53
2023-03-30T21:04:16.021Z,8.59
2023-03-30T21:08:18.033Z,8.77
2023-03-30T21:12:20.641Z,8.92
2023-03-30T21:16:24.614Z,8.82
2023-03-30T21:20:26.737Z,8.77
2023-03-30T21:24:30.245Z,8.92
2023-03-30T21:28:33.984Z,8.97
2023-03-30T21:32:36.666Z,8.96
2023-03-30T21:36:39.513Z,9.03
2023-03-30T21:40:42.039Z,9.05
2023-03-30T21:44:44.038Z,9.01
2023-03-30T21:48:47.041Z,9.02
2023-03-30T21:52:49.217Z,8.97
2023-03-30T21:56:51.214Z,9.11
2023-03-30T22:01:04.975Z,9.00
2023-03-30T22:05:12.940Z,8.98
2023-03-30T22:09:15.024Z,8.89
2023-03-30T22:13:16.978Z,8.71
2023-03-30T22:17:19.084Z,8.72
2023-03-30T22:21:24.641Z,8.79
2023-03-30T22:25:26.899Z,8.75
2023-03-30T22:29:29.056Z,9.10
2023-03-30T22:33:31.127Z,9.06
2023-03-30T22:37:33.276Z,9.11
2023-03-30T22:41:36.241Z,9.03
2023-03-30T22:45:39.570Z,8.96
2023-03-30T22:49:41.575Z,9.04
2023-03-30T22:53:43.578Z,9.15
2023-03-30T22:57:46.883Z,9.26
2023-03-30T23:01:48.615Z,9.24
2023-03-30T23:05:51.793Z,9.28
2023-03-30T23:09:53.710Z,9.35
2023-03-30T23:13:55.988Z,9.45
2023-03-30T23:17:58.100Z,9.69
2023-03-30T23:22:00.199Z,9.77
2023-03-30T23:26:08.358Z,9.92
2023-03-30T23:30:11.932Z,10.10
2023-03-30T23:34:13.994Z,10.22
2023-03-30T23:38:17.198Z,10.29
2023-03-30T23:42:19.305Z,10.33
2023-03-30T23:46:21.039Z,10.37
2023-03-30T23:50:23.098Z,10.36
2023-03-30T23:54:25.304Z,10.41
2023-03-30T23:58:27.303Z,10.44
